createdAt,value
2016-04-25T00:00:51.497Z,1010.77
2016-04-25T00:01:48.250Z,1010.8
2016-04-25T00:02:48.205Z,1010.8
2016-04-25T00:03:48.145Z,1010.8
2016-04-25T00:04:48.116Z,1010.79
2016-04-25T00:05:48.058Z,1010.78
2016-04-25T00:06:48.013Z,1010.81
2016-04-25T00:07:47.968Z,1010.77
2016-04-25T00:08:47.909Z,1010.76
2016-04-25T00:09:50.864Z,1010.8
2016-04-25T00:10:47.821Z,1010.78
2016-04-25T00:11:47.793Z,1010.75
2016-04-25T00:12:47.732Z,1010.76
2016-04-25T00:13:50.875Z,1010.75
2016-04-25T00:14:47.831Z,1010.73
2016-04-25T00:15:50.599Z,1010.72
2016-04-25T00:16:50.540Z,1010.74
2016-04-25T00:17:50.496Z,1010.74
2016-04-25T00:18:47.451Z,1010.76
2016-04-25T00:19:47.391Z,1010.76
2016-04-25T00:20:47.347Z,1010.77
2016-04-25T00:21:47.304Z,1010.72
2016-04-25T00:22:47.248Z,1010.73
2016-04-25T00:23:47.220Z,1010.7
2016-04-25T00:24:50.160Z,1010.69
2016-04-25T00:25:50.335Z,1010.69
2016-04-25T00:26:50.790Z,1010.68
2016-04-25T00:27:47.934Z,1010.68
2016-04-25T00:28:46.968Z,1010.68
2016-04-25T00:29:46.923Z,1010.67
2016-04-25T00:30:49.881Z,1010.66
2016-04-25T00:31:46.836Z,1010.65
2016-04-25T00:32:49.995Z,1010.66
2016-04-25T00:33:49.748Z,1010.62
2016-04-25T00:34:46.687Z,1010.6
2016-04-25T00:35:46.644Z,1010.64
2016-04-25T00:36:46.583Z,1010.65
2016-04-25T00:37:46.540Z,1010.64
2016-04-25T00:38:46.683Z,1010.62
2016-04-25T00:39:49.451Z,1010.63
2016-04-25T00:40:46.391Z,1010.6
2016-04-25T00:41:46.363Z,1010.6
2016-04-25T00:42:46.302Z,1010.63
2016-04-25T00:43:46.259Z,1010.6
2016-04-25T00:44:46.214Z,1010.66
2016-04-25T00:45:46.155Z,1010.64
2016-04-25T00:46:46.110Z,1010.64
2016-04-25T00:47:46.067Z,1010.63
2016-04-25T00:48:49.241Z,1010.62
2016-04-25T00:49:45.978Z,1010.63
2016-04-25T00:50:45.918Z,1010.61
2016-04-25T00:51:45.874Z,1010.63
2016-04-25T00:52:48.829Z,1010.62
2016-04-25T00:53:48.989Z,1010.59
2016-04-25T00:54:45.726Z,1010.62
2016-04-25T00:55:45.698Z,1010.6
2016-04-25T00:56:45.637Z,1010.61
2016-04-25T00:57:45.594Z,1010.59
2016-04-25T00:58:45.549Z,1010.6
2016-04-25T00:59:45.552Z,1010.6
2016-04-25T01:00:45.445Z,1010.59
2016-04-25T01:01:48.416Z,1010.57
2016-04-25T01:02:45.356Z,1010.58
2016-04-25T01:03:48.329Z,1010.61
2016-04-25T01:04:48.268Z,1010.58
2016-04-25T01:05:45.412Z,1010.53
2016-04-25T01:06:45.180Z,1010.6
2016-04-25T01:07:45.120Z,1010.53
2016-04-25T01:08:45.076Z,1010.58
2016-04-25T01:09:48.032Z,1010.58
2016-04-25T01:10:47.988Z,1010.55
2016-04-25T01:11:47.943Z,1010.54
2016-04-25T01:12:44.883Z,1010.49
2016-04-25T01:13:44.839Z,1010.51
2016-04-25T01:14:44.780Z,1010.52
2016-04-25T01:15:44.735Z,1010.49
2016-04-25T01:16:44.691Z,1010.45
2016-04-25T01:17:44.647Z,1010.48
2016-04-25T01:18:44.603Z,1010.51
2016-04-25T01:19:47.558Z,1010.45
2016-04-25T01:20:44.499Z,1010.44
2016-04-25T01:21:44.454Z,1010.46
2016-04-25T01:22:44.411Z,1010.4
2016-04-25T01:23:44.366Z,1010.44
2016-04-25T01:24:47.321Z,1010.48
2016-04-25T01:25:44.262Z,1010.45
2016-04-25T01:26:44.218Z,1010.46
2016-04-25T01:27:44.174Z,1010.43
2016-04-25T01:28:44.115Z,1010.45
2016-04-25T01:29:44.070Z,1010.45
2016-04-25T01:30:44.026Z,1010.42
2016-04-25T01:31:43.998Z,1010.47
2016-04-25T01:32:43.937Z,1010.44
2016-04-25T01:33:43.893Z,1010.48
2016-04-25T01:34:43.834Z,1010.5
2016-04-25T01:35:43.789Z,1010.46
2016-04-25T01:36:43.745Z,1010.44
2016-04-25T01:37:43.701Z,1010.43
2016-04-25T01:38:43.656Z,1010.43
2016-04-25T01:39:46.612Z,1010.43
2016-04-25T01:40:46.553Z,1010.43
2016-04-25T01:41:43.509Z,1010.4
2016-04-25T01:42:43.464Z,1010.43
2016-04-25T01:43:43.404Z,1010.43
2016-04-25T01:44:43.360Z,1010.4
2016-04-25T01:45:43.316Z,1010.39
2016-04-25T01:46:43.272Z,1010.37
2016-04-25T01:47:46.228Z,1010.4
2016-04-25T01:48:43.183Z,1010.4
2016-04-25T01:49:43.124Z,1010.39
2016-04-25T01:50:46.080Z,1010.37
2016-04-25T01:51:43.035Z,1010.36
2016-04-25T01:52:42.991Z,1010.35
2016-04-25T01:53:42.932Z,1010.32
2016-04-25T01:54:45.888Z,1010.3
2016-04-25T01:55:42.843Z,1010.3
2016-04-25T01:56:45.799Z,1010.32
2016-04-25T01:57:42.754Z,1010.29
2016-04-25T01:58:45.710Z,1010.32
2016-04-25T01:59:42.651Z,1010.31
2016-04-25T02:00:42.606Z,1010.33
2016-04-25T02:01:42.563Z,1010.33
2016-04-25T02:02:42.503Z,1010.33
2016-04-25T02:03:42.459Z,1010.34
2016-04-25T02:04:45.414Z,1010.35
2016-04-25T02:05:42.370Z,1010.32
2016-04-25T02:06:45.326Z,1010.31
2016-04-25T02:07:42.267Z,1010.32
2016-04-25T02:08:42.425Z,1010.29
2016-04-25T02:09:42.178Z,1010.32
2016-04-25T02:10:45.133Z,1010.33
2016-04-25T02:11:42.090Z,1010.34
2016-04-25T02:12:42.264Z,1010.28
2016-04-25T02:13:41.985Z,1010.23
2016-04-25T02:14:41.941Z,1010.27
2016-04-25T02:15:41.897Z,1010.22
2016-04-25T02:16:41.853Z,1010.19
2016-04-25T02:17:41.808Z,1010.21
2016-04-25T02:18:41.749Z,1010.21
2016-04-25T02:19:41.719Z,1010.18
2016-04-25T02:20:41.660Z,1010.17
2016-04-25T02:21:41.617Z,1010.2
2016-04-25T02:22:41.557Z,1010.18
2016-04-25T02:23:41.512Z,1010.19
2016-04-25T02:24:41.468Z,1010.15
2016-04-25T02:25:41.423Z,1010.15
2016-04-25T02:26:41.380Z,1010.14
2016-04-25T02:27:41.336Z,1010.1
2016-04-25T02:28:41.275Z,1010.13
2016-04-25T02:29:41.232Z,1010.1
2016-04-25T02:30:41.187Z,1010.1
2016-04-25T02:31:41.127Z,1010.08
2016-04-25T02:32:44.099Z,1010.09
2016-04-25T02:33:41.243Z,1010.07
2016-04-25T02:34:40.996Z,1010.09
2016-04-25T02:35:40.935Z,1010.06
2016-04-25T02:36:40.890Z,1010.06
2016-04-25T02:37:43.847Z,1009.97
2016-04-25T02:38:40.802Z,1009.99
2016-04-25T02:39:40.758Z,1009.98
2016-04-25T02:40:40.699Z,1010.03
2016-04-25T02:41:40.670Z,1010.06
2016-04-25T02:42:40.626Z,1010.05
2016-04-25T02:43:41.113Z,1009.99
2016-04-25T02:44:40.522Z,1010
2016-04-25T02:45:40.665Z,1009.98
2016-04-25T02:46:40.418Z,1009.99
2016-04-25T02:47:40.374Z,1009.99
2016-04-25T02:48:40.330Z,1010.01
2016-04-25T02:49:40.520Z,1009.99
2016-04-25T02:50:40.225Z,1009.99
2016-04-25T02:51:40.181Z,1009.96
2016-04-25T02:52:40.138Z,1009.98
2016-04-25T02:53:40.093Z,1009.93
2016-04-25T02:54:40.049Z,1009.95
2016-04-25T02:55:40.004Z,1009.97
2016-04-25T02:56:39.961Z,1009.94
2016-04-25T02:57:40.197Z,1009.93
2016-04-25T02:58:40.404Z,1009.95
2016-04-25T02:59:39.813Z,1009.93
2016-04-25T03:00:39.752Z,1009.96
2016-04-25T03:01:39.740Z,1009.96
2016-04-25T03:02:39.867Z,1009.97
2016-04-25T03:03:39.621Z,1010
2016-04-25T03:04:39.576Z,1009.97
2016-04-25T03:05:42.515Z,1009.95
2016-04-25T03:06:39.472Z,1009.95
2016-04-25T03:07:39.428Z,1009.92
2016-04-25T03:08:39.383Z,1009.94
2016-04-25T03:09:39.323Z,1009.9
2016-04-25T03:10:39.295Z,1009.9
2016-04-25T03:11:39.235Z,1009.94
2016-04-25T03:12:39.206Z,1009.9
2016-04-25T03:13:42.912Z,1009.89
2016-04-25T03:14:39.087Z,1009.87
2016-04-25T03:15:39.042Z,1009.92
2016-04-25T03:16:39.202Z,1009.88
2016-04-25T03:17:38.955Z,1009.87
2016-04-25T03:18:38.910Z,1009.88
2016-04-25T03:19:41.867Z,1009.89
2016-04-25T03:20:41.822Z,1009.88
2016-04-25T03:21:41.761Z,1009.92
2016-04-25T03:22:41.718Z,1009.86
2016-04-25T03:23:38.658Z,1009.87
2016-04-25T03:24:38.613Z,1009.85
2016-04-25T03:25:38.585Z,1009.85
2016-04-25T03:26:41.525Z,1009.85
2016-04-25T03:27:38.482Z,1009.82
2016-04-25T03:28:41.421Z,1009.78
2016-04-25T03:29:38.377Z,1009.84
2016-04-25T03:30:38.332Z,1009.79
2016-04-25T03:31:38.288Z,1009.76
2016-04-25T03:32:38.246Z,1009.8
2016-04-25T03:33:38.184Z,1009.8
2016-04-25T03:34:38.141Z,1009.78
2016-04-25T03:35:41.096Z,1009.83
2016-04-25T03:36:38.037Z,1009.79
2016-04-25T03:37:40.993Z,1009.77
2016-04-25T03:38:37.948Z,1009.81
2016-04-25T03:39:41.107Z,1009.77
2016-04-25T03:40:37.859Z,1009.75
2016-04-25T03:41:37.815Z,1009.71
2016-04-25T03:42:40.772Z,1009.74
2016-04-25T03:43:37.884Z,1009.7
2016-04-25T03:44:37.667Z,1009.69
2016-04-25T03:45:40.623Z,1009.68
2016-04-25T03:46:37.564Z,1009.66
2016-04-25T03:47:37.520Z,1009.69
2016-04-25T03:48:37.475Z,1009.7
2016-04-25T03:49:37.431Z,1009.64
2016-04-25T03:50:40.403Z,1009.68
2016-04-25T03:51:37.342Z,1009.68
2016-04-25T03:52:40.299Z,1009.65
2016-04-25T03:53:37.239Z,1009.67
2016-04-25T03:54:37.194Z,1009.67
2016-04-25T03:55:37.150Z,1009.66
2016-04-25T03:56:40.106Z,1009.64
2016-04-25T03:57:37.047Z,1009.61
2016-04-25T03:58:37.143Z,1009.64
2016-04-25T03:59:36.957Z,1009.62
2016-04-25T04:00:36.898Z,1009.61
2016-04-25T04:01:36.855Z,1009.61
2016-04-25T04:02:37.013Z,1009.58
2016-04-25T04:03:36.765Z,1009.57
2016-04-25T04:04:36.721Z,1009.57
2016-04-25T04:05:36.662Z,1009.59
2016-04-25T04:06:36.618Z,1009.6
2016-04-25T04:07:39.604Z,1009.62
2016-04-25T04:08:36.529Z,1009.58
2016-04-25T04:09:36.485Z,1009.57
2016-04-25T04:10:36.426Z,1009.59
2016-04-25T04:11:36.381Z,1009.61
2016-04-25T04:12:36.898Z,1009.64
2016-04-25T04:13:39.292Z,1009.63
2016-04-25T04:14:36.234Z,1009.62
2016-04-25T04:15:39.407Z,1009.63
2016-04-25T04:16:36.145Z,1009.59
2016-04-25T04:17:36.100Z,1009.62
2016-04-25T04:18:36.056Z,1009.59
2016-04-25T04:19:39.012Z,1009.59
2016-04-25T04:20:35.952Z,1009.57
2016-04-25T04:21:38.909Z,1009.61
2016-04-25T04:22:38.880Z,1009.62
2016-04-25T04:23:35.820Z,1009.62
2016-04-25T04:24:35.760Z,1009.6
2016-04-25T04:25:35.716Z,1009.6
2016-04-25T04:26:35.671Z,1009.59
2016-04-25T04:27:38.628Z,1009.57
2016-04-25T04:28:35.567Z,1009.58
2016-04-25T04:29:35.524Z,1009.59
2016-04-25T04:30:38.494Z,1009.6
2016-04-25T04:31:35.435Z,1009.59
2016-04-25T04:32:35.390Z,1009.62
2016-04-25T04:33:35.331Z,1009.59
2016-04-25T04:34:35.287Z,1009.62
2016-04-25T04:35:38.274Z,1009.62
2016-04-25T04:36:38.198Z,1009.63
2016-04-25T04:37:35.138Z,1009.64
2016-04-25T04:38:38.110Z,1009.65
2016-04-25T04:39:35.065Z,1009.59
2016-04-25T04:40:35.006Z,1009.59
2016-04-25T04:41:34.962Z,1009.61
2016-04-25T04:42:34.918Z,1009.58
2016-04-25T04:43:34.889Z,1009.59
2016-04-25T04:44:34.814Z,1009.6
2016-04-25T04:45:34.769Z,1009.58
2016-04-25T04:46:34.726Z,1009.56
2016-04-25T04:47:34.665Z,1009.55
2016-04-25T04:48:34.621Z,1009.56
2016-04-25T04:49:34.577Z,1009.54
2016-04-25T04:50:37.533Z,1009.54
2016-04-25T04:51:34.473Z,1009.5
2016-04-25T04:52:34.429Z,1009.51
2016-04-25T04:53:34.384Z,1009.53
2016-04-25T04:54:34.544Z,1009.54
2016-04-25T04:55:34.296Z,1009.52
2016-04-25T04:56:34.236Z,1009.52
2016-04-25T04:57:34.192Z,1009.52
2016-04-25T04:58:37.163Z,1009.51
2016-04-25T04:59:37.119Z,1009.52
2016-04-25T05:00:34.060Z,1009.52
2016-04-25T05:01:34.000Z,1009.53
2016-04-25T05:02:33.955Z,1009.52
2016-04-25T05:03:33.911Z,1009.53
2016-04-25T05:04:36.868Z,1009.53
2016-04-25T05:05:36.808Z,1009.53
2016-04-25T05:06:36.779Z,1009.53
2016-04-25T05:07:33.719Z,1009.49
2016-04-25T05:08:33.674Z,1009.51
2016-04-25T05:09:33.615Z,1009.49
2016-04-25T05:10:33.587Z,1009.46
2016-04-25T05:11:33.730Z,1009.48
2016-04-25T05:12:33.550Z,1009.48
2016-04-25T05:13:36.517Z,1009.47
2016-04-25T05:14:36.519Z,1009.45
2016-04-25T05:15:33.502Z,1009.46
2016-04-25T05:16:33.518Z,1009.43
2016-04-25T05:17:33.479Z,1009.45
2016-04-25T05:18:33.436Z,1009.46
2016-04-25T05:19:33.407Z,1009.4
2016-04-25T05:20:36.395Z,1009.4
2016-04-25T05:21:36.350Z,1009.46
2016-04-25T05:22:33.313Z,1009.39
2016-04-25T05:23:33.260Z,1009.4
2016-04-25T05:24:33.222Z,1009.41
2016-04-25T05:25:33.183Z,1009.41
2016-04-25T05:26:33.144Z,1009.45
2016-04-25T05:27:33.102Z,1009.41
2016-04-25T05:28:33.389Z,1009.38
2016-04-25T05:29:33.002Z,1009.44
2016-04-25T05:30:32.961Z,1009.39
2016-04-25T05:31:32.918Z,1009.45
2016-04-25T05:32:32.859Z,1009.47
2016-04-25T05:33:32.831Z,1009.41
2016-04-25T05:34:32.772Z,1009.44
2016-04-25T05:35:32.729Z,1009.43
2016-04-25T05:36:32.670Z,1009.38
2016-04-25T05:37:35.642Z,1009.43
2016-04-25T05:38:32.597Z,1009.4
2016-04-25T05:39:32.539Z,1009.41
2016-04-25T05:40:32.511Z,1009.42
2016-04-25T05:41:32.436Z,1009.43
2016-04-25T05:42:32.406Z,1009.41
2016-04-25T05:43:32.348Z,1009.42
2016-04-25T05:44:35.303Z,1009.42
2016-04-25T05:45:32.242Z,1009.39
2016-04-25T05:46:32.277Z,1009.38
2016-04-25T05:47:32.155Z,1009.39
2016-04-25T05:48:32.111Z,1009.4
2016-04-25T05:49:32.067Z,1009.37
2016-04-25T05:50:35.022Z,1009.36
2016-04-25T05:51:34.977Z,1009.38
2016-04-25T05:52:31.919Z,1009.39
2016-04-25T05:53:31.874Z,1009.41
2016-04-25T05:54:31.829Z,1009.33
2016-04-25T05:55:31.786Z,1009.32
2016-04-25T05:56:31.726Z,1009.36
2016-04-25T05:57:34.697Z,1009.32
2016-04-25T05:58:31.638Z,1009.34
2016-04-25T05:59:34.609Z,1009.29
2016-04-25T06:00:34.549Z,1009.33
2016-04-25T06:01:31.489Z,1009.34
2016-04-25T06:02:31.446Z,1009.28
2016-04-25T06:03:31.416Z,1009.28
2016-04-25T06:04:31.356Z,1009.29
2016-04-25T06:05:31.313Z,1009.24
2016-04-25T06:06:34.268Z,1009.27
2016-04-25T06:07:31.209Z,1009.29
2016-04-25T06:08:31.165Z,1009.27
2016-04-25T06:09:31.120Z,1009.29
2016-04-25T06:10:31.060Z,1009.24
2016-04-25T06:11:31.016Z,1009.3
2016-04-25T06:12:30.987Z,1009.27
2016-04-25T06:13:31.412Z,1009.29
2016-04-25T06:14:33.884Z,1009.3
2016-04-25T06:15:30.823Z,1009.29
2016-04-25T06:16:30.811Z,1009.25
2016-04-25T06:17:30.736Z,1009.28
2016-04-25T06:18:30.691Z,1009.21
2016-04-25T06:19:33.647Z,1009.21
2016-04-25T06:20:30.587Z,1009.14
2016-04-25T06:21:30.543Z,1009.2
2016-04-25T06:22:30.500Z,1009.16
2016-04-25T06:23:30.440Z,1009.09
2016-04-25T06:24:30.395Z,1009.12
2016-04-25T06:25:30.351Z,1009.13
2016-04-25T06:26:30.308Z,1009.07
2016-04-25T06:27:30.248Z,1009.12
2016-04-25T06:28:30.219Z,1009.14
2016-04-25T06:29:39.269Z,1009.16
2016-04-25T06:30:33.115Z,1009.11
2016-04-25T06:31:30.086Z,1009.13
2016-04-25T06:32:30.027Z,1009.1
2016-04-25T06:33:29.967Z,1009.06
2016-04-25T06:34:29.922Z,1009.1
2016-04-25T06:35:29.879Z,1009.06
2016-04-25T06:36:32.819Z,1009.06
2016-04-25T06:37:29.821Z,1009.04
2016-04-25T06:38:29.731Z,1009.01
2016-04-25T06:39:29.685Z,1009.03
2016-04-25T06:40:29.642Z,1008.99
2016-04-25T06:41:29.582Z,1008.97
2016-04-25T06:42:32.569Z,1008.91
2016-04-25T06:43:29.493Z,1008.9
2016-04-25T06:44:29.450Z,1008.87
2016-04-25T06:45:32.405Z,1008.9
2016-04-25T06:46:29.346Z,1008.9
2016-04-25T06:47:29.301Z,1008.9
2016-04-25T06:48:29.258Z,1008.91
2016-04-25T06:49:29.212Z,1008.93
2016-04-25T06:50:29.169Z,1008.86
2016-04-25T06:51:32.109Z,1008.85
2016-04-25T06:52:29.065Z,1008.85
2016-04-25T06:53:32.020Z,1008.81
2016-04-25T06:54:28.962Z,1008.82
2016-04-25T06:55:28.917Z,1008.79
2016-04-25T06:56:28.873Z,1008.82
2016-04-25T06:57:29.031Z,1008.76
2016-04-25T06:58:28.909Z,1008.77
2016-04-25T06:59:28.725Z,1008.71
2016-04-25T07:00:31.696Z,1008.7
2016-04-25T07:01:28.636Z,1008.68
2016-04-25T07:02:28.591Z,1008.67
2016-04-25T07:03:28.532Z,1008.64
2016-04-25T07:04:28.488Z,1008.71
2016-04-25T07:05:28.444Z,1008.62
2016-04-25T07:06:28.400Z,1008.62
2016-04-25T07:07:28.949Z,1008.58
2016-04-25T07:08:28.311Z,1008.59
2016-04-25T07:09:28.252Z,1008.57
2016-04-25T07:10:28.207Z,1008.56
2016-04-25T07:11:28.163Z,1008.52
2016-04-25T07:12:28.885Z,1008.52
2016-04-25T07:13:28.090Z,1008.54
2016-04-25T07:14:28.030Z,1008.51
2016-04-25T07:15:27.971Z,1008.47
2016-04-25T07:16:27.926Z,1008.47
2016-04-25T07:17:27.882Z,1008.47
2016-04-25T07:18:27.838Z,1008.48
2016-04-25T07:19:27.779Z,1008.46
2016-04-25T07:20:30.749Z,1008.42
2016-04-25T07:21:27.690Z,1008.43
2016-04-25T07:22:28.973Z,1008.42
2016-04-25T07:23:27.586Z,1008.43
2016-04-25T07:24:27.557Z,1008.38
2016-04-25T07:25:27.498Z,1008.42
2016-04-25T07:26:30.453Z,1008.39
2016-04-25T07:27:30.409Z,1008.38
2016-04-25T07:28:37.334Z,1008.4
2016-04-25T07:29:27.305Z,1008.38
2016-04-25T07:30:27.261Z,1008.38
2016-04-25T07:31:27.217Z,1008.34
2016-04-25T07:32:27.173Z,1008.36
2016-04-25T07:33:27.113Z,1008.33
2016-04-25T07:34:30.084Z,1008.32
2016-04-25T07:35:30.228Z,1008.37
2016-04-25T07:36:26.964Z,1008.31
2016-04-25T07:37:27.561Z,1008.3
2016-04-25T07:38:27.079Z,1008.24
2016-04-25T07:39:26.833Z,1008.29
2016-04-25T07:40:26.788Z,1008.26
2016-04-25T07:41:26.744Z,1008.23
2016-04-25T07:42:26.918Z,1008.26
2016-04-25T07:43:26.655Z,1008.3
2016-04-25T07:44:26.595Z,1008.24
2016-04-25T07:45:26.552Z,1008.27
2016-04-25T07:46:26.507Z,1008.23
2016-04-25T07:47:26.463Z,1008.27
2016-04-25T07:48:26.403Z,1008.17
2016-04-25T07:49:26.359Z,1008.11
2016-04-25T07:50:26.299Z,1008.17
2016-04-25T07:51:26.254Z,1008.16
2016-04-25T07:52:26.383Z,1008.15
2016-04-25T07:53:26.167Z,1008.14
2016-04-25T07:54:26.123Z,1008.18
2016-04-25T07:55:26.079Z,1008.13
2016-04-25T07:56:26.018Z,1008.08
2016-04-25T07:57:25.973Z,1008.04
2016-04-25T07:58:25.931Z,1008.02
2016-04-25T07:59:26.589Z,1008
2016-04-25T08:00:25.826Z,1008.02
2016-04-25T08:01:25.985Z,1008.01
2016-04-25T08:02:25.987Z,1007.94
2016-04-25T08:03:25.694Z,1007.94
2016-04-25T08:04:28.665Z,1007.98
2016-04-25T08:05:25.589Z,1007.95
2016-04-25T08:06:28.561Z,1007.93
2016-04-25T08:07:27.408Z,1007.89
2016-04-25T08:08:25.441Z,1007.9
2016-04-25T08:09:25.397Z,1007.86
2016-04-25T08:10:25.369Z,1007.84
2016-04-25T08:11:25.309Z,1007.78
2016-04-25T08:12:28.476Z,1007.79
2016-04-25T08:13:28.308Z,1007.82
2016-04-25T08:14:25.154Z,1007.78
2016-04-25T08:15:25.125Z,1007.76
2016-04-25T08:16:25.065Z,1007.76
2016-04-25T08:17:25.022Z,1007.74
2016-04-25T08:18:24.977Z,1007.72
2016-04-25T08:19:24.933Z,1007.7
2016-04-25T08:20:24.888Z,1007.7
2016-04-25T08:21:24.829Z,1007.66
2016-04-25T08:22:27.864Z,1007.68
2016-04-25T08:23:24.945Z,1007.62
2016-04-25T08:24:24.697Z,1007.64
2016-04-25T08:25:24.637Z,1007.57
2016-04-25T08:26:24.609Z,1007.57
2016-04-25T08:27:24.549Z,1007.56
2016-04-25T08:28:25.067Z,1007.5
2016-04-25T08:29:24.851Z,1007.56
2016-04-25T08:30:24.417Z,1007.52
2016-04-25T08:31:24.356Z,1007.53
2016-04-25T08:32:24.359Z,1007.51
2016-04-25T08:33:24.252Z,1007.5
2016-04-25T08:34:24.303Z,1007.51
2016-04-25T08:35:27.180Z,1007.49
2016-04-25T08:36:24.133Z,1007.44
2016-04-25T08:37:24.074Z,1007.41
2016-04-25T08:38:24.091Z,1007.41
2016-04-25T08:39:23.985Z,1007.38
2016-04-25T08:40:23.941Z,1007.36
2016-04-25T08:41:23.870Z,1007.31
2016-04-25T08:42:23.826Z,1007.32
2016-04-25T08:43:23.798Z,1007.33
2016-04-25T08:44:23.737Z,1007.24
2016-04-25T08:45:23.694Z,1007.24
2016-04-25T08:46:23.649Z,1007.32
2016-04-25T08:47:23.590Z,1007.22
2016-04-25T08:48:23.545Z,1007.22
2016-04-25T08:49:23.517Z,1007.21
2016-04-25T08:50:23.457Z,1007.21
2016-04-25T08:51:23.412Z,1007.16
2016-04-25T08:52:23.572Z,1007.21
2016-04-25T08:53:23.309Z,1007.15
2016-04-25T08:54:23.248Z,1007.14
2016-04-25T08:55:23.205Z,1007.13
2016-04-25T08:56:26.178Z,1007.09
2016-04-25T08:57:26.213Z,1007.09
2016-04-25T08:58:23.072Z,1007.09
2016-04-25T08:59:23.028Z,1007.09
2016-04-25T09:00:22.984Z,1007.12
2016-04-25T09:01:22.924Z,1007.11
2016-04-25T09:02:22.880Z,1007.04
2016-04-25T09:03:22.835Z,1007.05
2016-04-25T09:04:25.888Z,1007.03
2016-04-25T09:05:22.778Z,1007.02
2016-04-25T09:06:22.703Z,1007
2016-04-25T09:07:22.783Z,1007.03
2016-04-25T09:08:22.599Z,1007.01
2016-04-25T09:09:22.555Z,1007.02
2016-04-25T09:10:22.511Z,1006.93
2016-04-25T09:11:22.451Z,1006.9
2016-04-25T09:12:22.454Z,1006.93
2016-04-25T09:13:22.393Z,1006.89
2016-04-25T09:14:22.381Z,1006.91
2016-04-25T09:15:25.305Z,1006.86
2016-04-25T09:16:22.218Z,1006.82
2016-04-25T09:17:22.174Z,1006.83
2016-04-25T09:18:22.130Z,1006.86
2016-04-25T09:19:22.086Z,1006.85
2016-04-25T09:20:22.026Z,1006.82
2016-04-25T09:21:21.982Z,1006.79
2016-04-25T09:22:21.969Z,1006.84
2016-04-25T09:23:21.925Z,1006.81
2016-04-25T09:24:24.865Z,1006.8
2016-04-25T09:25:21.852Z,1006.72
2016-04-25T09:26:21.745Z,1006.75
2016-04-25T09:27:21.779Z,1006.73
2016-04-25T09:28:21.860Z,1006.74
2016-04-25T09:29:24.597Z,1006.75
2016-04-25T09:30:21.787Z,1006.76
2016-04-25T09:31:21.509Z,1006.7
2016-04-25T09:32:21.464Z,1006.73
2016-04-25T09:33:21.452Z,1006.7
2016-04-25T09:34:21.376Z,1006.73
2016-04-25T09:35:24.550Z,1006.66
2016-04-25T09:36:21.881Z,1006.62
2016-04-25T09:37:21.228Z,1006.63
2016-04-25T09:38:21.168Z,1006.64
2016-04-25T09:39:21.123Z,1006.63
2016-04-25T09:40:21.158Z,1006.6
2016-04-25T09:41:24.036Z,1006.56
2016-04-25T09:42:24.022Z,1006.52
2016-04-25T09:43:21.228Z,1006.52
2016-04-25T09:44:20.887Z,1006.48
2016-04-25T09:45:20.827Z,1006.5
2016-04-25T09:46:20.986Z,1006.5
2016-04-25T09:47:20.802Z,1006.5
2016-04-25T09:48:20.695Z,1006.51
2016-04-25T09:49:20.807Z,1006.45
2016-04-25T09:50:23.747Z,1006.4
2016-04-25T09:51:23.766Z,1006.43
2016-04-25T09:52:20.502Z,1006.39
2016-04-25T09:53:23.474Z,1006.37
2016-04-25T09:54:20.804Z,1006.34
2016-04-25T09:55:23.354Z,1006.32
2016-04-25T09:56:20.310Z,1006.27
2016-04-25T09:57:23.266Z,1006.26
2016-04-25T09:58:23.221Z,1006.25
2016-04-25T09:59:23.193Z,1006.32
2016-04-25T10:00:20.134Z,1006.31
2016-04-25T10:01:20.074Z,1006.27
2016-04-25T10:02:20.029Z,1006.25
2016-04-25T10:03:20.251Z,1006.29
2016-04-25T10:04:22.972Z,1006.24
2016-04-25T10:05:19.881Z,1006.22
2016-04-25T10:06:19.837Z,1006.17
2016-04-25T10:07:19.793Z,1006.17
2016-04-25T10:08:19.733Z,1006.2
2016-04-25T10:09:19.689Z,1006.18
2016-04-25T10:10:22.661Z,1006.12
2016-04-25T10:11:22.617Z,1006.17
2016-04-25T10:12:19.556Z,1006.13
2016-04-25T10:13:22.714Z,1006.08
2016-04-25T10:14:19.562Z,1006.05
2016-04-25T10:15:19.409Z,1006.06
2016-04-25T10:16:19.364Z,1006.04
2016-04-25T10:17:19.398Z,1005.96
2016-04-25T10:18:19.260Z,1005.99
2016-04-25T10:19:19.216Z,1005.93
2016-04-25T10:20:19.172Z,1005.95
2016-04-25T10:21:19.112Z,1005.91
2016-04-25T10:22:19.068Z,1005.86
2016-04-25T10:23:19.023Z,1005.89
2016-04-25T10:24:18.979Z,1005.87
2016-04-25T10:25:18.935Z,1005.8
2016-04-25T10:26:21.985Z,1005.85
2016-04-25T10:27:18.878Z,1005.83
2016-04-25T10:28:18.990Z,1005.81
2016-04-25T10:29:18.727Z,1005.77
2016-04-25T10:30:19.074Z,1005.81
2016-04-25T10:31:18.645Z,1005.77
2016-04-25T10:32:21.835Z,1005.79
2016-04-25T10:33:21.556Z,1005.72
2016-04-25T10:34:18.495Z,1005.69
2016-04-25T10:35:19.223Z,1005.65
2016-04-25T10:36:18.402Z,1005.75
2016-04-25T10:37:18.358Z,1005.71
2016-04-25T10:38:18.298Z,1005.74
2016-04-25T10:39:18.254Z,1005.67
2016-04-25T10:40:18.210Z,1005.68
2016-04-25T10:41:18.151Z,1005.69
2016-04-25T10:42:21.106Z,1005.6
2016-04-25T10:43:18.061Z,1005.64
2016-04-25T10:44:18.877Z,1005.69
2016-04-25T10:45:17.989Z,1005.69
2016-04-25T10:46:18.133Z,1005.61
2016-04-25T10:47:17.885Z,1005.57
2016-04-25T10:48:17.903Z,1005.59
2016-04-25T10:49:20.984Z,1005.55
2016-04-25T10:50:17.737Z,1005.47
2016-04-25T10:51:17.692Z,1005.53
2016-04-25T10:52:17.727Z,1005.43
2016-04-25T10:53:17.588Z,1005.44
2016-04-25T10:54:17.544Z,1005.34
2016-04-25T10:55:17.499Z,1005.39
2016-04-25T10:56:17.456Z,1005.32
2016-04-25T10:57:20.443Z,1005.31
2016-04-25T10:58:17.352Z,1005.31
2016-04-25T10:59:20.307Z,1005.28
2016-04-25T11:00:17.264Z,1005.27
2016-04-25T11:01:17.204Z,1005.31
2016-04-25T11:02:17.176Z,1005.32
2016-04-25T11:03:20.131Z,1005.2
2016-04-25T11:04:17.071Z,1005.22
2016-04-25T11:05:17.027Z,1005.22
2016-04-25T11:06:16.982Z,1005.21
2016-04-25T11:07:16.954Z,1005.2
2016-04-25T11:08:16.879Z,1005.17
2016-04-25T11:09:16.835Z,1005.2
2016-04-25T11:10:16.775Z,1005.15
2016-04-25T11:11:16.731Z,1005.1
2016-04-25T11:12:16.687Z,1005.07
2016-04-25T11:13:16.642Z,1005.04
2016-04-25T11:14:16.597Z,1005.09
2016-04-25T11:15:16.539Z,1005.08
2016-04-25T11:16:16.494Z,1004.97
2016-04-25T11:17:16.450Z,1005.04
2016-04-25T11:18:19.390Z,1004.99
2016-04-25T11:19:16.362Z,1004.97
2016-04-25T11:20:16.317Z,1004.95
2016-04-25T11:21:16.258Z,1004.95
2016-04-25T11:22:16.214Z,1004.93
2016-04-25T11:23:16.153Z,1004.96
2016-04-25T11:24:16.156Z,1004.88
2016-04-25T11:25:16.080Z,1004.88
2016-04-25T11:26:16.099Z,1004.79
2016-04-25T11:27:15.977Z,1004.86
2016-04-25T11:28:18.933Z,1004.83
2016-04-25T11:29:15.874Z,1004.85
2016-04-25T11:30:15.829Z,1004.84
2016-04-25T11:31:15.785Z,1004.89
2016-04-25T11:32:15.741Z,1004.82
2016-04-25T11:33:18.712Z,1004.78
2016-04-25T11:34:18.652Z,1004.76
2016-04-25T11:35:15.592Z,1004.76
2016-04-25T11:36:18.610Z,1004.75
2016-04-25T11:37:15.488Z,1004.7
2016-04-25T11:38:15.475Z,1004.71
2016-04-25T11:39:15.400Z,1004.69
2016-04-25T11:40:15.356Z,1004.65
2016-04-25T11:41:18.311Z,1004.65
2016-04-25T11:42:15.298Z,1004.65
2016-04-25T11:43:15.426Z,1004.67
2016-04-25T11:44:15.163Z,1004.56
2016-04-25T11:45:15.119Z,1004.55
2016-04-25T11:46:15.059Z,1004.58
2016-04-25T11:47:18.020Z,1004.55
2016-04-25T11:48:17.975Z,1004.52
2016-04-25T11:49:15.124Z,1004.51
2016-04-25T11:50:17.892Z,1004.48
2016-04-25T11:51:14.833Z,1004.51
2016-04-25T11:52:14.788Z,1004.48
2016-04-25T11:53:14.733Z,1004.44
2016-04-25T11:54:14.689Z,1004.39
2016-04-25T11:55:14.629Z,1004.39
2016-04-25T11:56:14.585Z,1004.44
2016-04-25T11:57:14.541Z,1004.42
2016-04-25T11:58:17.497Z,1004.4
2016-04-25T11:59:14.437Z,1004.35
2016-04-25T12:00:14.409Z,1004.32
2016-04-25T12:01:14.348Z,1004.36
2016-04-25T12:02:14.304Z,1004.2
2016-04-25T12:03:17.260Z,1004.26
2016-04-25T12:04:14.201Z,1004.3
2016-04-25T12:05:17.187Z,1004.18
2016-04-25T12:06:14.112Z,1004.23
2016-04-25T12:07:17.083Z,1004.28
2016-04-25T12:08:14.023Z,1004.23